Toms River, NJ (08755)

3:16 PM EST on March 05, 2015 (GMT -0500)
Toms River/North Dover | Change Station
CLOSE
Current Station
Personal Weather Station
Location: Toms River, NJ
Elevation: 105 ft
Nearby Weather Stations
Active Advisory: Winter Storm Warning Active Notice: Public Information Statement

Elev 105 ft 40.03 °N, 74.22 °W | Updated 4 minutes ago

Snow
Snow
23.4 °F
Feels Like 23 °F
N
0.0
Wind Variable Wind from NNW
Gusts 0.0 mph

Today
High -- | Low -- °F
--% Chance of Precip.
Yesterday
High -- | Low -- °F
Precip. -- in
6:24 AM 5:52 PM
Full, 100% visible
Pressure 30.18 in
Visibility 1.0 miles
Clouds Overcast 1100 ft
Windchill 23 °F
Dew Point 22 °F
Humidity 94%
Rainfall in
Snow Depth Not available.
UV 0.0 out of 12
Pollen .50 out of 12
Air Quality Not available.
Flu Activity Not available.
METAR KMJX 051955Z AUTO 34012G18KT 1SM OVC011 M04/M06 A3018 RMK AO1

More Conditions Fewer Conditions

Pressure 30.18 in
Visibility 1.0 miles
Clouds Overcast 1100 ft
Windchill 23 °F
Dew Point 22 °F
Humidity 94%
Rainfall in
Snow Depth Not available.
UV 0.0 out of 12
Pollen .50 out of 12
Air Quality Not available.
Flu Activity Not available.
METAR KMJX 051955Z AUTO 34012G18KT 1SM OVC011 M04/M06 A3018 RMK AO1

More Conditions Fewer Conditions

10-Day Weather Forecast

Almanac

Astronomy

Mar. 05, 2015 Rise Set
Actual Time
Civil Twilight
Nautical Twilight
Astronomical Twilight
Moon
Length of Visible Light
Length of Day
Tomorrow will be .
, % of the Moon is Illuminated

Today's Extremes

State Highs State Lows

Community

WunderPhotos

Upload Photos

1,802,938 photos uploaded!

WunderBlogs® & News

Nearby

Air Quality

  Air Quality AQ Index Pollutant
Not available.

Snow Depth

Station Depth Elevation

Earthquake Activity

City Distance Mag. Time & Date
Minimum magnitude displayed is 2.5.

Coastal Water Temperatures

Place Temperature

Nearby Weather Stations

Winter Storm Warning
Statement as of 10:22 AM EST on March 05, 2015

... Winter Storm Warning remains in effect until 7 PM EST this
evening...

* locations... Maryland's Eastern Shore through the northern two
thirds of Delaware as well as the Philadelphia Metro area and
across the southeast one half of New Jersey.

* Hazard types... long duration snow.

* Snow accumulations... 4 to 8 inches.

* Timing... any mix will change to snow by noon and will continue
through most of the daylight hours... possibly heavy at times.

* Temperatures... in the upper 20s.

* Wind... becoming north and gusting to 20 mph during the day
Thursday.

* Visibility... may lower briefly to one quarter mile later this
morning into the afternoon.

* Impacts... widespread and substantial impacts on travel are
expected.

Precautionary/preparedness actions...

This Winter Storm Warning means that significant amounts of snow
are expected. The snow will make travel very hazardous or
impossible.